Time;durP1;ratioP1;P1;durP2;ratioP2;P2;SDS_P1;SDS_P2;PMS_P1;PMS_P2;Temp;Humidity;BMP_temperature;BMP_pressure;BME280_temperature;BME280_humidity;BME280_pressure;Samples;Min_cycle;Max_cycle;Signal;HPM_P1;HPM_P2
2022/05/14 00:01:02;;;;;;;5.28;1.48;;;;;;;;;;5066412;28;20530;-56
2022/05/14 00:03:30;;;;;;;8.13;1.67;;;;;;;;;;5066482;28;20106;-58
2022/05/14 00:06:01;;;;;;;8.45;1.80;;;;;;;;;;5067214;28;20085;-57
2022/05/14 00:08:28;;;;;;;11.30;1.70;;;;;;;;;;5067400;28;20103;-56
2022/05/14 00:13:39;;;;;;;6.32;1.80;;;;;;;;;;5067234;28;20651;-56
2022/05/14 00:16:06;;;;;;;11.55;1.58;;;;;;;;;;5067069;28;20089;-56
2022/05/14 00:18:33;;;;;;;7.43;1.58;;;;;;;;;;5066993;28;20053;-57
2022/05/14 00:20:59;;;;;;;7.80;1.80;;;;;;;;;;5066837;28;20582;-57
2022/05/14 00:23:27;;;;;;;8.00;1.52;;;;;;;;;;5066982;28;20096;-56
2022/05/14 00:25:53;;;;;;;7.75;1.92;;;;;;;;;;5066734;28;20073;-57
2022/05/14 00:28:20;;;;;;;8.15;1.75;;;;;;;;;;5067224;28;20138;-56
2022/05/14 00:30:47;;;;;;;5.13;1.85;;;;;;;;;;5067325;28;20052;-56
2022/05/14 00:33:13;;;;;;;10.90;1.75;;;;;;;;;;5067137;28;20542;-57
2022/05/14 00:35:40;;;;;;;6.25;1.52;;;;;;;;;;5066808;28;20111;-57
2022/05/14 00:38:08;;;;;;;7.90;1.95;;;;;;;;;;5067080;28;20103;-56
2022/05/14 00:40:39;;;;;;;6.05;1.80;;;;;;;;;;5067486;28;20128;-55
2022/05/14 00:43:06;;;;;;;5.95;1.55;;;;;;;;;;5066885;28;20065;-57
2022/05/14 00:45:35;;;;;;;10.77;2.10;;;;;;;;;;5069767;28;20911;-57
2022/05/14 00:48:01;;;;;;;7.70;1.80;;;;;;;;;;5068696;28;20057;-57
2022/05/14 00:50:30;;;;;;;7.43;1.77;;;;;;;;;;5070716;28;20118;-57
2022/05/14 00:53:00;;;;;;;4.50;1.33;;;;;;;;;;5070297;28;20056;-56
2022/05/14 00:55:27;;;;;;;6.95;1.80;;;;;;;;;;5070080;28;20115;-56
2022/05/14 00:57:54;;;;;;;6.20;1.48;;;;;;;;;;5070500;28;20072;-56
2022/05/14 01:00:21;;;;;;;6.35;1.45;;;;;;;;;;5070345;28;20157;-57
2022/05/14 01:02:48;;;;;;;6.72;1.70;;;;;;;;;;5070665;28;20487;-57
2022/05/14 01:05:16;;;;;;;12.27;2.50;;;;;;;;;;5070599;28;20975;-55
2022/05/14 01:07:44;;;;;;;7.03;1.80;;;;;;;;;;5069666;28;20103;-56
2022/05/14 01:10:11;;;;;;;10.23;1.97;;;;;;;;;;5070520;28;20065;-56
2022/05/14 01:12:41;;;;;;;4.72;1.67;;;;;;;;;;5069564;28;20080;-56
2022/05/14 01:15:10;;;;;;;9.20;2.00;;;;;;;;;;5069989;28;20130;-56
2022/05/14 01:17:36;;;;;;;9.55;2.10;;;;;;;;;;5069811;28;20053;-57
2022/05/14 01:20:03;;;;;;;5.45;1.92;;;;;;;;;;5069877;28;20114;-56
2022/05/14 01:22:30;;;;;;;11.02;1.90;;;;;;;;;;5070208;28;20554;-56
2022/05/14 01:27:57;;;;;;;12.55;2.63;;;;;;;;;;5069599;28;20126;-57
2022/05/14 01:30:24;;;;;;;8.02;2.05;;;;;;;;;;5070165;28;20064;-57
2022/05/14 01:33:04;;;;;;;6.97;2.10;;;;;;;;;;5069948;28;20140;-57
2022/05/14 01:35:32;;;;;;;9.32;2.17;;;;;;;;;;5069922;28;20852;-57
2022/05/14 01:37:59;;;;;;;10.95;2.22;;;;;;;;;;5067990;28;20057;-56
2022/05/14 01:40:25;;;;;;;10.77;2.20;;;;;;;;;;5069833;28;20644;-57
2022/05/14 01:42:51;;;;;;;10.88;2.58;;;;;;;;;;5070414;28;20115;-57
2022/05/14 01:45:18;;;;;;;10.30;2.67;;;;;;;;;;5068428;28;20060;-57
2022/05/14 01:47:44;;;;;;;5.93;1.73;;;;;;;;;;5069983;28;20470;-56
2022/05/14 01:50:10;;;;;;;9.82;2.30;;;;;;;;;;5069501;28;20562;-57
2022/05/14 01:52:37;;;;;;;8.77;2.03;;;;;;;;;;5069229;28;20135;-57
2022/05/14 01:55:03;;;;;;;9.18;2.33;;;;;;;;;;5068900;28;20511;-56
2022/05/14 01:57:30;;;;;;;10.85;2.45;;;;;;;;;;5068849;28;20581;-55
2022/05/14 01:59:56;;;;;;;6.15;2.22;;;;;;;;;;5068390;28;20847;-57
2022/05/14 02:02:22;;;;;;;9.55;2.17;;;;;;;;;;5068945;28;20525;-56
2022/05/14 02:04:49;;;;;;;8.70;2.47;;;;;;;;;;5069291;28;20122;-56
2022/05/14 02:07:15;;;;;;;11.20;2.75;;;;;;;;;;5069762;28;20107;-57
2022/05/14 02:09:41;;;;;;;6.75;2.25;;;;;;;;;;5069946;28;20084;-57
2022/05/14 02:12:08;;;;;;;11.65;2.38;;;;;;;;;;5068910;28;20053;-56
2022/05/14 02:14:34;;;;;;;8.80;3.30;;;;;;;;;;5069645;28;20076;-55
2022/05/14 02:17:01;;;;;;;9.38;2.13;;;;;;;;;;5069215;28;20061;-57
2022/05/14 02:19:27;;;;;;;9.80;2.20;;;;;;;;;;5069041;28;20588;-57
2022/05/14 02:21:54;;;;;;;10.70;2.80;;;;;;;;;;5068583;28;20108;-57
2022/05/14 02:24:20;;;;;;;9.30;2.53;;;;;;;;;;5069042;28;20056;-56
2022/05/14 02:26:46;;;;;;;7.57;2.25;;;;;;;;;;5068305;28;20110;-57
2022/05/14 02:29:13;;;;;;;8.20;2.60;;;;;;;;;;5069171;28;20130;-57
2022/05/14 02:31:40;;;;;;;7.90;2.10;;;;;;;;;;5069172;28;20107;-57
2022/05/14 02:34:06;;;;;;;12.95;3.03;;;;;;;;;;5067920;28;20499;-57
2022/05/14 02:36:32;;;;;;;10.02;3.15;;;;;;;;;;5069115;28;20114;-57
2022/05/14 02:38:59;;;;;;;5.20;2.13;;;;;;;;;;5068867;28;20060;-57
2022/05/14 02:41:25;;;;;;;9.50;2.70;;;;;;;;;;5068330;28;20085;-57
2022/05/14 02:43:53;;;;;;;7.97;2.63;;;;;;;;;;5068628;28;20057;-57
2022/05/14 02:46:20;;;;;;;7.32;2.58;;;;;;;;;;5068442;28;20136;-57
2022/05/14 02:48:46;;;;;;;9.20;2.92;;;;;;;;;;5068556;28;20480;-57
2022/05/14 02:51:13;;;;;;;11.00;3.05;;;;;;;;;;5068490;28;20049;-57
2022/05/14 02:53:39;;;;;;;5.53;2.47;;;;;;;;;;5068143;28;20130;-57
2022/05/14 02:56:05;;;;;;;8.73;2.35;;;;;;;;;;5068971;28;20111;-57
2022/05/14 03:01:17;;;;;;;8.88;2.67;;;;;;;;;;5068439;28;20112;-57
2022/05/14 03:03:43;;;;;;;10.23;2.65;;;;;;;;;;5068037;28;20069;-57
2022/05/14 03:06:09;;;;;;;14.57;3.22;;;;;;;;;;5068327;28;20053;-56
2022/05/14 03:08:36;;;;;;;9.57;3.10;;;;;;;;;;5067179;28;20056;-57
2022/05/14 03:11:02;;;;;;;11.05;3.33;;;;;;;;;;5068159;28;20138;-57
2022/05/14 03:13:30;;;;;;;10.77;3.42;;;;;;;;;;5068607;28;20545;-56
2022/05/14 03:15:56;;;;;;;7.60;2.40;;;;;;;;;;5067965;28;20061;-57
2022/05/14 03:18:23;;;;;;;15.18;3.42;;;;;;;;;;5068184;28;20495;-58
2022/05/14 03:20:49;;;;;;;10.90;2.78;;;;;;;;;;5067873;28;20519;-58
2022/05/14 03:23:15;;;;;;;15.80;3.83;;;;;;;;;;5067101;28;20485;-58
2022/05/14 03:25:42;;;;;;;9.98;3.67;;;;;;;;;;5068297;28;20568;-58
2022/05/14 03:28:08;;;;;;;13.15;3.50;;;;;;;;;;5066049;28;20663;-58
2022/05/14 03:30:35;;;;;;;9.90;3.55;;;;;;;;;;5067452;28;20061;-57
2022/05/14 03:33:01;;;;;;;16.52;3.85;;;;;;;;;;5066994;28;20157;-58
2022/05/14 03:35:27;;;;;;;10.82;4.13;;;;;;;;;;5068284;28;20510;-58
2022/05/14 03:37:54;;;;;;;9.82;3.55;;;;;;;;;;5067213;28;20057;-58
2022/05/14 03:40:20;;;;;;;7.68;3.40;;;;;;;;;;5067894;28;20049;-58
2022/05/14 03:42:46;;;;;;;11.50;3.65;;;;;;;;;;5067897;28;20474;-58
2022/05/14 03:45:13;;;;;;;8.13;3.38;;;;;;;;;;5067629;28;20142;-57
2022/05/14 03:47:40;;;;;;;11.75;3.30;;;;;;;;;;5067898;28;20053;-58
2022/05/14 03:50:07;;;;;;;11.32;3.60;;;;;;;;;;5067373;28;20057;-58
2022/05/14 03:52:33;;;;;;;9.20;3.45;;;;;;;;;;5067441;28;20049;-58
2022/05/14 03:55:00;;;;;;;9.23;3.15;;;;;;;;;;5068300;28;20111;-56
2022/05/14 03:57:26;;;;;;;11.73;3.47;;;;;;;;;;5067965;28;20126;-58
2022/05/14 03:59:53;;;;;;;13.65;4.18;;;;;;;;;;5066270;28;20127;-58
2022/05/14 04:02:21;;;;;;;11.80;3.60;;;;;;;;;;5067851;28;20083;-59
2022/05/14 04:04:47;;;;;;;8.77;3.67;;;;;;;;;;5066728;28;20503;-56
2022/05/14 04:07:18;;;;;;;9.88;4.20;;;;;;;;;;5067849;28;20115;-58
2022/05/14 04:09:44;;;;;;;10.27;3.90;;;;;;;;;;5066930;28;20590;-58
2022/05/14 04:12:10;;;;;;;9.43;3.80;;;;;;;;;;5067887;28;20087;-58
2022/05/14 04:14:37;;;;;;;13.73;3.78;;;;;;;;;;5067843;28;20107;-58
2022/05/14 04:17:03;;;;;;;11.88;4.35;;;;;;;;;;5066671;28;20107;-58
2022/05/14 04:19:30;;;;;;;11.38;4.65;;;;;;;;;;5068940;28;20045;-58
2022/05/14 04:21:56;;;;;;;16.85;4.70;;;;;;;;;;5071045;28;20450;-58
2022/05/14 04:24:23;;;;;;;12.52;4.22;;;;;;;;;;5070809;28;20496;-56
2022/05/14 04:26:49;;;;;;;13.20;4.10;;;;;;;;;;5070573;28;20053;-58
2022/05/14 04:29:15;;;;;;;13.30;4.60;;;;;;;;;;5070322;28;20531;-58
2022/05/14 04:31:42;;;;;;;11.52;4.63;;;;;;;;;;5070436;28;20574;-58
2022/05/14 04:34:08;;;;;;;11.38;4.25;;;;;;;;;;5070672;28;20057;-58
2022/05/14 04:36:35;;;;;;;10.90;4.45;;;;;;;;;;5069939;28;20057;-58
2022/05/14 04:39:02;;;;;;;19.20;4.75;;;;;;;;;;5070802;28;20100;-58
2022/05/14 04:41:30;;;;;;;13.27;4.78;;;;;;;;;;5070645;28;20135;-56
2022/05/14 04:43:58;;;;;;;14.05;4.63;;;;;;;;;;5070570;28;20056;-58
2022/05/14 04:46:24;;;;;;;14.45;4.15;;;;;;;;;;5070437;28;20115;-58
2022/05/14 04:48:50;;;;;;;13.27;4.43;;;;;;;;;;5070050;28;20067;-58
2022/05/14 04:51:17;;;;;;;14.77;4.88;;;;;;;;;;5069399;28;20101;-58
2022/05/14 04:53:43;;;;;;;15.43;5.32;;;;;;;;;;5070056;28;20093;-58
2022/05/14 04:56:10;;;;;;;15.30;5.03;;;;;;;;;;5070484;28;20061;-58
2022/05/14 04:58:36;;;;;;;12.57;4.57;;;;;;;;;;5070001;28;20557;-56
2022/05/14 05:01:03;;;;;;;16.58;5.55;;;;;;;;;;5070803;28;20080;-58
2022/05/14 05:03:29;;;;;;;16.42;4.55;;;;;;;;;;5069987;28;20224;-58
2022/05/14 05:06:00;;;;;;;13.27;4.53;;;;;;;;;;5070878;28;20045;-58
2022/05/14 05:08:28;;;;;;;16.50;5.60;;;;;;;;;;5069273;28;20061;-58
2022/05/14 05:10:55;;;;;;;14.35;4.75;;;;;;;;;;5070365;28;20150;-58
2022/05/14 05:13:23;;;;;;;12.00;4.53;;;;;;;;;;5070348;28;20049;-58
2022/05/14 05:15:51;;;;;;;11.80;4.43;;;;;;;;;;5070187;28;20557;-57
2022/05/14 05:18:18;;;;;;;23.10;5.50;;;;;;;;;;5069293;28;20507;-58
2022/05/14 05:20:45;;;;;;;21.10;5.57;;;;;;;;;;5069677;28;20049;-58
2022/05/14 05:23:13;;;;;;;16.67;4.57;;;;;;;;;;5070518;28;20052;-58
2022/05/14 05:25:40;;;;;;;16.95;5.88;;;;;;;;;;5069982;28;20076;-57
2022/05/14 05:28:07;;;;;;;22.10;5.50;;;;;;;;;;5069744;28;20060;-57
2022/05/14 05:30:33;;;;;;;14.82;4.47;;;;;;;;;;5068244;28;20110;-58
2022/05/14 05:33:00;;;;;;;13.02;5.07;;;;;;;;;;5070155;28;20127;-57
2022/05/14 05:35:27;;;;;;;18.80;5.63;;;;;;;;;;5069985;28;20107;-58
2022/05/14 05:37:53;;;;;;;13.65;5.13;;;;;;;;;;5069680;28;20123;-58
2022/05/14 05:40:20;;;;;;;14.60;4.90;;;;;;;;;;5070016;28;20056;-56
2022/05/14 05:42:46;;;;;;;14.75;4.90;;;;;;;;;;5069162;28;20495;-58
2022/05/14 05:45:14;;;;;;;11.82;5.25;;;;;;;;;;5069154;28;20593;-58
2022/05/14 05:47:41;;;;;;;16.15;5.10;;;;;;;;;;5069522;28;20067;-56
2022/05/14 05:50:08;;;;;;;18.35;5.28;;;;;;;;;;5069528;28;20230;-58
2022/05/14 05:52:34;;;;;;;16.67;5.15;;;;;;;;;;5069029;28;20053;-57
2022/05/14 05:57:45;;;;;;;16.77;5.57;;;;;;;;;;5069518;28;20565;-56
2022/05/14 06:00:14;;;;;;;11.63;4.68;;;;;;;;;;5069256;28;20057;-57
2022/05/14 06:02:40;;;;;;;;;;;;;;;;;;5069640;28;20119;-54
2022/05/14 06:05:06;;;;;;;18.65;4.88;;;;;;;;;;5068526;28;43777;-57
2022/05/14 06:07:34;;;;;;;15.13;5.53;;;;;;;;;;5068987;28;20574;-53
2022/05/14 06:10:01;;;;;;;18.88;4.20;;;;;;;;;;5068683;28;20487;-56
2022/05/14 06:12:30;;;;;;;13.15;4.93;;;;;;;;;;5069826;28;20142;-58
2022/05/14 06:14:56;;;;;;;16.77;5.53;;;;;;;;;;5068495;28;20087;-57
2022/05/14 06:17:23;;;;;;;18.52;5.40;;;;;;;;;;5068930;28;20056;-57
2022/05/14 06:19:49;;;;;;;22.23;4.72;;;;;;;;;;5069170;28;20482;-56
2022/05/14 06:22:16;;;;;;;18.52;5.35;;;;;;;;;;5068329;28;20095;-58
2022/05/14 06:24:42;;;;;;;16.30;4.55;;;;;;;;;;5068930;28;20081;-58
2022/05/14 06:27:09;;;;;;;18.70;4.90;;;;;;;;;;5069018;28;20053;-55
2022/05/14 06:29:35;;;;;;;14.90;5.15;;;;;;;;;;5069061;28;20053;-58
2022/05/14 06:32:02;;;;;;;17.45;4.50;;;;;;;;;;5067974;28;20052;-58
2022/05/14 06:34:28;;;;;;;16.50;4.68;;;;;;;;;;5068385;28;20057;-57
2022/05/14 06:36:54;;;;;;;8.13;3.72;;;;;;;;;;5067912;28;20684;-58
2022/05/14 06:39:21;;;;;;;13.60;4.60;;;;;;;;;;5068470;28;20427;-57
2022/05/14 06:41:48;;;;;;;24.65;5.22;;;;;;;;;;5067132;28;20045;-56
2022/05/14 06:44:14;;;;;;;20.58;4.70;;;;;;;;;;5067733;28;20508;-57
2022/05/14 06:46:40;;;;;;;10.45;4.78;;;;;;;;;;5067830;28;20088;-56
2022/05/14 06:49:07;;;;;;;17.35;4.50;;;;;;;;;;5068691;28;20111;-57
2022/05/14 06:51:33;;;;;;;17.45;4.68;;;;;;;;;;5069019;28;20053;-58
2022/05/14 06:54:02;;;;;;;12.50;4.80;;;;;;;;;;5069044;28;20084;-55
2022/05/14 06:56:30;;;;;;;12.25;4.05;;;;;;;;;;5068282;28;20577;-57
2022/05/14 06:58:57;;;;;;;13.55;3.83;;;;;;;;;;5069232;28;20060;-58
2022/05/14 07:01:23;;;;;;;14.38;4.07;;;;;;;;;;5068484;28;20053;-60
2022/05/14 07:06:37;;;;;;;18.30;3.80;;;;;;;;;;5048433;28;20151;-60
2022/05/14 07:09:12;;;;;;;12.50;3.70;;;;;;;;;;5056543;28;20061;-60
2022/05/14 07:11:40;;;;;;;13.75;3.03;;;;;;;;;;5067453;28;20423;-60
2022/05/14 07:14:06;;;;;;;12.20;3.33;;;;;;;;;;5068736;28;20123;-60
2022/05/14 07:16:33;;;;;;;10.43;3.08;;;;;;;;;;5068597;28;20056;-59
2022/05/14 07:18:59;;;;;;;18.30;4.00;;;;;;;;;;5068432;28;20060;-61
2022/05/14 07:21:28;;;;;;;16.58;3.80;;;;;;;;;;5067101;28;20064;-60
2022/05/14 07:23:55;;;;;;;12.27;2.75;;;;;;;;;;5066242;28;20049;-60
2022/05/14 07:26:21;;;;;;;12.82;2.83;;;;;;;;;;5068538;28;20135;-60
2022/05/14 07:28:48;;;;;;;10.73;3.05;;;;;;;;;;5065683;28;20110;-60
2022/05/14 07:31:15;;;;;;;6.90;1.80;;;;;;;;;;5065516;28;20910;-60
2022/05/14 07:33:41;;;;;;;15.00;2.80;;;;;;;;;;5066641;28;20146;-60
2022/05/14 07:36:12;;;;;;;16.80;2.53;;;;;;;;;;5067815;28;20577;-60
2022/05/14 07:38:40;;;;;;;13.60;3.10;;;;;;;;;;5067768;28;20053;-60
2022/05/14 07:41:06;;;;;;;;;;;;;;;;;;5067980;28;20057;-60
2022/05/14 07:43:34;;;;;;;10.23;2.67;;;;;;;;;;5066434;28;43777;-60
2022/05/14 07:46:04;;;;;;;10.57;2.75;;;;;;;;;;5066974;28;20107;-60
2022/05/14 07:48:35;;;;;;;10.13;2.95;;;;;;;;;;5067065;28;20067;-60
2022/05/14 07:51:03;;;;;;;9.05;2.17;;;;;;;;;;5063137;28;20087;-60
2022/05/14 07:53:30;;;;;;;5.30;2.17;;;;;;;;;;5068161;28;20549;-60
2022/05/14 07:56:00;;;;;;;9.13;3.00;;;;;;;;;;5059808;28;20109;-61
2022/05/14 07:58:27;;;;;;;11.07;2.17;;;;;;;;;;5068712;28;20483;-60
2022/05/14 08:00:57;;;;;;;8.88;1.98;;;;;;;;;;5065795;28;20053;-60
2022/05/14 08:03:24;;;;;;;12.45;2.40;;;;;;;;;;5051958;28;20057;-60
2022/05/14 08:05:51;;;;;;;9.60;2.42;;;;;;;;;;5053361;28;20585;-60
2022/05/14 08:08:17;;;;;;;10.13;2.13;;;;;;;;;;5048827;28;20112;-60
2022/05/14 08:10:43;;;;;;;10.60;2.38;;;;;;;;;;5047555;28;20049;-60
2022/05/14 08:13:15;;;;;;;12.32;2.85;;;;;;;;;;5050265;28;20081;-60
2022/05/14 08:15:42;;;;;;;10.30;2.33;;;;;;;;;;5047023;28;20089;-60
2022/05/14 08:18:09;;;;;;;9.60;2.20;;;;;;;;;;5050320;28;20053;-60
2022/05/14 08:20:36;;;;;;;11.40;2.38;;;;;;;;;;5054763;28;20096;-60
2022/05/14 08:25:51;;;;;;;9.02;1.90;;;;;;;;;;5054198;28;20111;-60
2022/05/14 08:28:18;;;;;;;12.02;2.03;;;;;;;;;;5053332;28;20087;-60
2022/05/14 08:30:45;;;;;;;10.13;2.72;;;;;;;;;;5061255;28;20053;-60
2022/05/14 08:33:11;;;;;;;20.70;3.13;;;;;;;;;;5058358;28;20107;-59
2022/05/14 08:35:38;;;;;;;12.68;2.47;;;;;;;;;;5063909;28;20412;-60
2022/05/14 08:38:05;;;;;;;9.18;2.42;;;;;;;;;;5063236;28;20099;-60
2022/05/14 08:40:34;;;;;;;12.57;3.75;;;;;;;;;;5051315;28;20518;-60
2022/05/14 08:43:02;;;;;;;14.73;2.35;;;;;;;;;;5064028;28;20154;-60
2022/05/14 08:45:29;;;;;;;9.57;2.70;;;;;;;;;;5051132;28;20084;-60
2022/05/14 08:48:01;;;;;;;14.15;2.70;;;;;;;;;;5061166;28;20064;-60
2022/05/14 08:50:32;;;;;;;12.55;2.33;;;;;;;;;;5047713;28;20057;-61
2022/05/14 08:53:00;;;;;;;10.55;2.83;;;;;;;;;;5063960;28;20079;-57
2022/05/14 08:55:38;;;;;;;9.48;2.38;;;;;;;;;;5066889;28;20094;-54
2022/05/14 08:58:13;;;;;;;12.85;2.42;;;;;;;;;;5066247;28;20053;-59
2022/05/14 09:00:39;;;;;;;10.18;2.38;;;;;;;;;;5065165;28;20093;-58
2022/05/14 09:03:06;;;;;;;11.82;2.30;;;;;;;;;;5066177;28;20088;-58
2022/05/14 09:05:34;;;;;;;12.73;2.47;;;;;;;;;;5068314;28;20053;-58
2022/05/14 09:08:01;;;;;;;12.63;2.58;;;;;;;;;;5070410;28;20061;-58
2022/05/14 09:10:36;;;;;;;12.20;2.60;;;;;;;;;;5069533;28;20567;-59
2022/05/14 09:13:08;;;;;;;14.55;2.10;;;;;;;;;;5070148;28;20080;-61
2022/05/14 09:15:41;;;;;;;18.75;2.55;;;;;;;;;;5070679;28;20143;-61
2022/05/14 09:18:10;;;;;;;10.48;2.50;;;;;;;;;;5069743;28;20060;-61
2022/05/14 09:20:44;;;;;;;9.57;2.10;;;;;;;;;;5069224;28;20119;-61
2022/05/14 09:23:11;;;;;;;9.75;2.88;;;;;;;;;;5070425;28;20499;-61
2022/05/14 09:25:41;;;;;;;10.38;2.50;;;;;;;;;;5068616;28;20057;-58
2022/05/14 09:28:07;;;;;;;12.85;2.78;;;;;;;;;;5069865;28;20574;-58
2022/05/14 09:30:35;;;;;;;6.50;1.75;;;;;;;;;;5069137;28;20096;-59
2022/05/14 09:33:03;;;;;;;13.20;2.58;;;;;;;;;;5069684;28;20938;-58
2022/05/14 09:35:32;;;;;;;12.32;2.47;;;;;;;;;;5070295;28;20531;-58
2022/05/14 09:38:08;;;;;;;13.30;2.47;;;;;;;;;;5069327;28;20049;-59
2022/05/14 09:40:34;;;;;;;10.13;2.15;;;;;;;;;;5049552;28;20128;-58
2022/05/14 09:43:10;;;;;;;9.80;2.50;;;;;;;;;;5049807;28;20908;-57
2022/05/14 09:45:38;;;;;;;12.57;2.30;;;;;;;;;;5050672;28;20049;-59
2022/05/14 09:48:08;;;;;;;8.57;2.22;;;;;;;;;;5049390;28;20111;-58
2022/05/14 09:50:34;;;;;;;11.02;2.10;;;;;;;;;;5056472;28;20157;-60
2022/05/14 09:53:05;;;;;;;15.15;2.60;;;;;;;;;;5069171;28;20053;-60
2022/05/14 09:55:37;;;;;;;10.18;2.63;;;;;;;;;;5069367;28;20081;-60
2022/05/14 09:58:10;;;;;;;10.68;2.63;;;;;;;;;;5069825;28;20052;-60
2022/05/14 10:00:40;;;;;;;11.05;1.98;;;;;;;;;;5069721;28;20081;-61
2022/05/14 10:03:15;;;;;;;12.73;2.45;;;;;;;;;;5069925;28;20537;-60
2022/05/14 10:05:59;;;;;;;10.98;2.10;;;;;;;;;;5069395;28;20057;-60
2022/05/14 10:08:44;;;;;;;11.50;2.88;;;;;;;;;;5069704;28;20103;-60
2022/05/14 10:11:19;;;;;;;7.35;2.15;;;;;;;;;;5069583;28;20056;-60
2022/05/14 10:13:57;;;;;;;8.18;2.35;;;;;;;;;;5069504;28;20862;-60
2022/05/14 10:16:36;;;;;;;10.02;2.55;;;;;;;;;;5068403;28;20061;-60
2022/05/14 10:19:08;;;;;;;10.43;2.30;;;;;;;;;;5069057;28;20045;-60
2022/05/14 10:21:44;;;;;;;9.75;1.88;;;;;;;;;;5069938;28;20080;-60
2022/05/14 10:27:23;;;;;;;10.20;2.40;;;;;;;;;;5069588;28;20056;-61
2022/05/14 10:29:56;;;;;;;7.97;2.58;;;;;;;;;;5069508;28;20110;-60
2022/05/14 10:32:25;;;;;;;12.63;2.50;;;;;;;;;;5069686;28;20103;-60
2022/05/14 10:34:52;;;;;;;11.10;2.05;;;;;;;;;;5068865;28;20044;-61
2022/05/14 10:37:28;;;;;;;10.50;2.75;;;;;;;;;;5069342;28;20092;-60
2022/05/14 10:40:02;;;;;;;13.18;2.13;;;;;;;;;;5069081;28;20982;-60
2022/05/14 10:42:33;;;;;;;7.32;1.52;;;;;;;;;;5068517;28;20060;-61
2022/05/14 10:45:07;;;;;;;10.30;2.20;;;;;;;;;;5068668;28;20057;-61
2022/05/14 10:47:33;;;;;;;7.25;2.53;;;;;;;;;;5068030;28;22059;-60
2022/05/14 10:50:04;;;;;;;6.72;1.80;;;;;;;;;;5068293;28;20061;-61
2022/05/14 10:52:30;;;;;;;7.18;1.88;;;;;;;;;;5069444;28;20052;-61
2022/05/14 10:55:00;;;;;;;9.00;2.03;;;;;;;;;;5068383;28;20063;-59
2022/05/14 10:57:31;;;;;;;12.32;2.33;;;;;;;;;;5068593;28;20134;-61
2022/05/14 11:00:02;;;;;;;11.65;2.00;;;;;;;;;;5068252;28;20145;-61
2022/05/14 11:02:30;;;;;;;7.88;2.13;;;;;;;;;;5068151;28;20090;-60
2022/05/14 11:04:57;;;;;;;7.53;2.08;;;;;;;;;;5080386;28;20052;-60
2022/05/14 11:07:32;;;;;;;9.10;1.85;;;;;;;;;;5076009;28;20049;-61
2022/05/14 11:10:07;;;;;;;16.73;2.80;;;;;;;;;;5067581;28;20981;-61
2022/05/14 11:12:34;;;;;;;7.70;2.35;;;;;;;;;;5068100;28;20057;-61
2022/05/14 11:15:02;;;;;;;8.38;2.05;;;;;;;;;;5068023;28;20103;-61
2022/05/14 11:17:30;;;;;;;7.40;2.40;;;;;;;;;;5068744;28;20056;-60
2022/05/14 11:20:05;;;;;;;9.98;2.70;;;;;;;;;;5067835;28;20099;-61
2022/05/14 11:22:37;;;;;;;10.55;2.53;;;;;;;;;;5068389;28;20215;-61
2022/05/14 11:25:21;;;;;;;9.50;1.98;;;;;;;;;;5067069;28;20542;-61
2022/05/14 11:28:01;;;;;;;7.07;2.33;;;;;;;;;;5067777;28;20116;-61
2022/05/14 11:30:37;;;;;;;14.60;2.43;;;;;;;;;;5065493;28;20920;-61
2022/05/14 11:33:22;;;;;;;11.45;2.60;;;;;;;;;;5065782;28;20053;-61
2022/05/14 11:35:49;;;;;;;8.13;2.15;;;;;;;;;;5066742;28;20057;-61
2022/05/14 11:38:29;;;;;;;9.57;2.50;;;;;;;;;;5066977;28;20061;-61
2022/05/14 11:40:56;;;;;;;9.30;2.53;;;;;;;;;;5067496;28;20120;-61
2022/05/14 11:43:34;;;;;;;21.33;2.80;;;;;;;;;;5067171;28;20530;-61
2022/05/14 11:46:09;;;;;;;12.65;2.22;;;;;;;;;;5055738;28;20057;-61
2022/05/14 11:48:41;;;;;;;8.00;2.78;;;;;;;;;;5082478;28;20143;-61
2022/05/14 11:51:09;;;;;;;13.50;2.60;;;;;;;;;;5087055;28;20493;-61
2022/05/14 11:53:41;;;;;;;7.28;2.15;;;;;;;;;;5087088;28;20048;-61
2022/05/14 11:56:09;;;;;;;14.32;2.90;;;;;;;;;;5088230;28;20080;-61
2022/05/14 11:58:42;;;;;;;10.35;2.75;;;;;;;;;;5087525;28;20893;-61
2022/05/14 12:01:12;;;;;;;5.95;2.00;;;;;;;;;;5088202;28;20056;-61
2022/05/14 12:03:40;;;;;;;10.27;2.35;;;;;;;;;;5086878;28;20057;-61
2022/05/14 12:06:29;;;;;;;7.57;1.73;;;;;;;;;;5087997;28;20521;-61
2022/05/14 12:09:05;;;;;;;11.52;1.92;;;;;;;;;;5087986;28;20542;-61
2022/05/14 12:11:45;;;;;;;9.80;2.42;;;;;;;;;;5087864;28;20068;-61
2022/05/14 12:14:15;;;;;;;11.00;2.25;;;;;;;;;;5087463;28;20048;-61
2022/05/14 12:16:44;;;;;;;13.60;3.08;;;;;;;;;;5087421;28;20092;-61
2022/05/14 12:19:18;;;;;;;13.23;2.45;;;;;;;;;;5086966;28;20126;-62
2022/05/14 12:21:50;;;;;;;11.40;2.35;;;;;;;;;;5087413;28;20639;-61
2022/05/14 12:24:17;;;;;;;12.90;2.60;;;;;;;;;;5087181;28;20084;-61
2022/05/14 12:26:44;;;;;;;10.93;2.60;;;;;;;;;;5087145;28;20514;-61
2022/05/14 12:29:30;;;;;;;10.73;2.05;;;;;;;;;;5087465;28;20053;-61
2022/05/14 12:34:47;;;;;;;9.40;2.03;;;;;;;;;;5088153;28;20060;-61
2022/05/14 12:37:19;;;;;;;7.88;1.95;;;;;;;;;;5087240;28;20053;-61
2022/05/14 12:39:47;;;;;;;10.52;2.38;;;;;;;;;;5088128;28;20052;-61
2022/05/14 12:42:14;;;;;;;8.15;2.30;;;;;;;;;;5090525;28;20060;-61
2022/05/14 12:44:42;;;;;;;12.63;2.85;;;;;;;;;;5090809;28;20054;-61
2022/05/14 12:47:09;;;;;;;11.10;2.42;;;;;;;;;;5090931;28;20052;-61
2022/05/14 12:49:37;;;;;;;12.20;3.10;;;;;;;;;;5089656;28;20145;-61
2022/05/14 12:52:03;;;;;;;;;;;;;;;;;;5090439;28;20052;-61
2022/05/14 12:54:33;;;;;;;8.73;2.67;;;;;;;;;;5090880;28;20031;-61
2022/05/14 12:57:01;;;;;;;8.65;1.88;;;;;;;;;;5090212;28;20057;-61
2022/05/14 12:59:27;;;;;;;;;;;;;;;;;;5090636;28;20135;-61
2022/05/14 13:01:56;;;;;;;9.23;2.10;;;;;;;;;;5089286;28;46402;-61
2022/05/14 13:04:29;;;;;;;10.10;2.38;;;;;;;;;;5090578;28;20057;-61
2022/05/14 13:06:58;;;;;;;7.20;1.83;;;;;;;;;;5091445;28;20072;-61
2022/05/14 13:09:25;;;;;;;6.50;2.13;;;;;;;;;;5089740;28;20571;-61
2022/05/14 13:11:52;;;;;;;10.70;2.88;;;;;;;;;;5091126;28;20106;-61
2022/05/14 13:14:29;;;;;;;7.05;2.00;;;;;;;;;;5089365;28;20952;-61
2022/05/14 13:16:57;;;;;;;7.97;2.22;;;;;;;;;;5089769;28;20110;-61
2022/05/14 13:19:26;;;;;;;8.52;2.30;;;;;;;;;;5090022;28;20049;-61
2022/05/14 13:21:54;;;;;;;8.98;2.05;;;;;;;;;;5089984;28;20056;-61
2022/05/14 13:24:20;;;;;;;10.30;2.30;;;;;;;;;;5089914;28;20157;-61
2022/05/14 13:26:48;;;;;;;11.43;2.53;;;;;;;;;;5090622;28;20087;-61
2022/05/14 13:29:14;;;;;;;;;;;;;;;;;;5091365;28;20052;-61
2022/05/14 13:31:42;;;;;;;8.68;2.28;;;;;;;;;;5090599;28;45900;-61
2022/05/14 13:37:11;;;;;;;9.70;2.15;;;;;;;;;;5091201;28;20145;-61
2022/05/14 13:39:57;;;;;;;7.90;2.20;;;;;;;;;;5090479;28;20053;-61
2022/05/14 13:42:39;;;;;;;11.57;2.53;;;;;;;;;;5090290;28;20137;-61
2022/05/14 13:45:08;;;;;;;12.05;2.78;;;;;;;;;;5090774;28;20056;-61
2022/05/14 13:47:35;;;;;;;8.43;2.78;;;;;;;;;;5090508;28;20102;-61
2022/05/14 13:50:03;;;;;;;10.85;2.97;;;;;;;;;;5090603;28;20600;-61
2022/05/14 13:52:33;;;;;;;9.93;2.35;;;;;;;;;;5090286;28;20456;-61
2022/05/14 13:55:00;;;;;;;13.38;2.33;;;;;;;;;;5090363;28;20110;-61
2022/05/14 13:57:27;;;;;;;12.45;2.40;;;;;;;;;;5090145;28;20049;-61
2022/05/14 14:00:08;;;;;;;10.18;2.67;;;;;;;;;;5090606;28;20053;-61
2022/05/14 14:02:34;;;;;;;7.90;2.03;;;;;;;;;;5090599;28;20053;-61
2022/05/14 14:05:09;;;;;;;9.77;2.28;;;;;;;;;;5089874;28;20517;-61
2022/05/14 14:07:38;;;;;;;11.07;2.90;;;;;;;;;;5090617;28;20115;-61
2022/05/14 14:10:12;;;;;;;11.55;2.92;;;;;;;;;;5090697;28;20509;-61
2022/05/14 14:12:39;;;;;;;11.70;2.60;;;;;;;;;;5090581;28;20062;-61
2022/05/14 14:15:06;;;;;;;10.40;2.55;;;;;;;;;;5090852;28;20053;-62
2022/05/14 14:17:33;;;;;;;10.05;2.85;;;;;;;;;;5090354;28;20052;-61
2022/05/14 14:19:59;;;;;;;11.82;2.67;;;;;;;;;;5090226;28;20099;-61
2022/05/14 14:22:27;;;;;;;7.97;2.15;;;;;;;;;;5089848;28;20060;-62
2022/05/14 14:24:54;;;;;;;9.18;2.15;;;;;;;;;;5089237;28;20506;-61
2022/05/14 14:27:20;;;;;;;9.10;2.30;;;;;;;;;;5090416;28;20556;-61
2022/05/14 14:29:47;;;;;;;9.45;2.30;;;;;;;;;;5090089;28;20407;-61
2022/05/14 14:32:13;;;;;;;6.50;2.20;;;;;;;;;;5089856;28;20048;-61
2022/05/14 14:34:41;;;;;;;10.18;2.40;;;;;;;;;;5090233;28;20057;-61
2022/05/14 14:37:07;;;;;;;9.73;2.58;;;;;;;;;;5090549;28;20048;-61
2022/05/14 14:39:34;;;;;;;8.05;2.42;;;;;;;;;;5089789;28;20110;-62
2022/05/14 14:42:00;;;;;;;8.15;2.35;;;;;;;;;;5090022;28;20057;-61
2022/05/14 14:44:27;;;;;;;8.98;2.97;;;;;;;;;;5090233;28;20090;-61
2022/05/14 14:46:53;;;;;;;8.35;2.53;;;;;;;;;;5071756;28;20053;-61
2022/05/14 14:49:20;;;;;;;9.27;2.30;;;;;;;;;;5068540;28;20139;-61
2022/05/14 14:51:47;;;;;;;7.43;2.15;;;;;;;;;;5069036;28;20057;-61
2022/05/14 14:54:13;;;;;;;9.98;2.40;;;;;;;;;;5068701;28;20080;-61
2022/05/14 14:56:39;;;;;;;6.28;2.30;;;;;;;;;;5069461;28;21253;-61
2022/05/14 14:59:06;;;;;;;11.10;2.42;;;;;;;;;;5069910;28;20053;-61
2022/05/14 15:01:39;;;;;;;10.90;2.40;;;;;;;;;;5069528;28;20081;-61
2022/05/14 15:04:08;;;;;;;7.80;2.13;;;;;;;;;;5069091;28;20525;-61
2022/05/14 15:06:35;;;;;;;10.27;2.58;;;;;;;;;;5068722;28;20102;-61
2022/05/14 15:09:01;;;;;;;7.57;2.67;;;;;;;;;;5069805;28;20126;-61